Etusivu
METAR-TAF:

METAR-TAF

Lentoasemat :

Évreux, Ranska

Leveyspiiri: 49-01N, Pituuspiiri: 001-13E, korkeus merenpinnasta: 141 m

Tämänhetkinen sää

Tämä raportti tehtiin 30 minuuttia sitten, kello 04.30 UTC
Tuuli 3 kn lounaasta, vaihdellen etelän ja lännen/lounaan välillä
Lämpötila 2°C
Kosteus 93%
Ilmanpaine 1029 hPa
Näkyvyys 10 km tai enemmän
ei pilviä alle 1500 m:ssä eikä cumulonimbus-pilviä

METAR: LFOE 210430Z AUTO 22003KT 190V250 CAVOK 02/01 Q1029

Aika: 06:00 (05:00 UTC)

Sääennuste

Tämä raportti tehtiin 9 tuntia ja 0 minuuttia sitten, kello 20.00 UTC
Ennuste voimassa 20. päivästä klo 21 UTC - 21. päivään klo 21 UTC
Tuuli 9 kn lännestä
Näkyvyys 10 km tai enemmän
ei pilviä alle 1500 m:ssä eikä cumulonimbus-pilviä

TAF: LFOE 202000Z 2021/2121 27009KT CAVOK

Säähavainnot ja -ennusteet yli 4000 lentoasemalta (METAR- ja TAF-raportit).

Käytössä olevat sääasemat on merkitty karttaan keltaisilla ja punaisilla pisteillä.

Aseta hiiri pisteen päälle nähdäksesi sääaseman nimen.

Klikkaa sitten nähdäksesi säähavainnot ja -ennusteet.

Kartan vaihtaminen: klikkaa mustalla rastilla varustettuja vihreitä pisteitä, niin voit zoomata sisään; viivalla varustettua vihreää pistettä, niin voit zoomata ulos tai vihreitä nuolia, niin pääset viereisille kartoille.


METAR-TAF: